sensor_id;sensor_type;location;lat;lon;timestamp;P1;durP1;ratioP1;P2;durP2;ratioP2
18196;SDS011;9224;52.422;13.024;2023-01-25T00:00:48;28.23;;;17.77;;
18196;SDS011;9224;52.422;13.024;2023-01-25T00:03:14;27.27;;;17.15;;
18196;SDS011;9224;52.422;13.024;2023-01-25T00:05:41;26.35;;;18.15;;
18196;SDS011;9224;52.422;13.024;2023-01-25T00:08:08;29.35;;;18.40;;
18196;SDS011;9224;52.422;13.024;2023-01-25T00:10:34;25.10;;;17.17;;
18196;SDS011;9224;52.422;13.024;2023-01-25T00:13:01;28.85;;;19.55;;
18196;SDS011;9224;52.422;13.024;2023-01-25T00:15:29;27.63;;;19.13;;
18196;SDS011;9224;52.422;13.024;2023-01-25T00:17:56;26.35;;;18.85;;
18196;SDS011;9224;52.422;13.024;2023-01-25T00:20:22;26.98;;;18.98;;
18196;SDS011;9224;52.422;13.024;2023-01-25T00:22:49;28.50;;;17.85;;
18196;SDS011;9224;52.422;13.024;2023-01-25T00:25:15;28.40;;;18.30;;
18196;SDS011;9224;52.422;13.024;2023-01-25T00:27:42;27.85;;;17.98;;
18196;SDS011;9224;52.422;13.024;2023-01-25T00:30:09;27.75;;;18.08;;
18196;SDS011;9224;52.422;13.024;2023-01-25T00:32:45;27.45;;;18.58;;
18196;SDS011;9224;52.422;13.024;2023-01-25T00:35:13;26.10;;;18.02;;
18196;SDS011;9224;52.422;13.024;2023-01-25T00:37:41;26.67;;;18.42;;
18196;SDS011;9224;52.422;13.024;2023-01-25T00:40:09;28.23;;;18.65;;
18196;SDS011;9224;52.422;13.024;2023-01-25T00:42:36;27.73;;;18.17;;
18196;SDS011;9224;52.422;13.024;2023-01-25T00:45:03;25.33;;;18.53;;
18196;SDS011;9224;52.422;13.024;2023-01-25T00:47:30;26.42;;;18.30;;
18196;SDS011;9224;52.422;13.024;2023-01-25T00:49:57;27.33;;;18.10;;
18196;SDS011;9224;52.422;13.024;2023-01-25T00:52:24;29.17;;;19.77;;
18196;SDS011;9224;52.422;13.024;2023-01-25T00:54:52;29.02;;;19.35;;
18196;SDS011;9224;52.422;13.024;2023-01-25T00:57:19;27.30;;;19.50;;
18196;SDS011;9224;52.422;13.024;2023-01-25T00:59:45;27.85;;;18.98;;
18196;SDS011;9224;52.422;13.024;2023-01-25T01:02:12;26.70;;;19.10;;
18196;SDS011;9224;52.422;13.024;2023-01-25T01:04:39;24.75;;;18.52;;
18196;SDS011;9224;52.422;13.024;2023-01-25T01:07:07;28.77;;;20.67;;
18196;SDS011;9224;52.422;13.024;2023-01-25T01:09:33;27.40;;;19.88;;
18196;SDS011;9224;52.422;13.024;2023-01-25T01:12:00;32.28;;;21.08;;
18196;SDS011;9224;52.422;13.024;2023-01-25T01:14:26;27.55;;;19.70;;
18196;SDS011;9224;52.422;13.024;2023-01-25T01:16:53;29.90;;;20.77;;
18196;SDS011;9224;52.422;13.024;2023-01-25T01:19:20;28.13;;;19.23;;
18196;SDS011;9224;52.422;13.024;2023-01-25T01:21:46;26.80;;;18.90;;
18196;SDS011;9224;52.422;13.024;2023-01-25T01:24:14;27.52;;;18.13;;
18196;SDS011;9224;52.422;13.024;2023-01-25T01:26:41;27.85;;;18.90;;
18196;SDS011;9224;52.422;13.024;2023-01-25T01:29:08;29.00;;;20.70;;
18196;SDS011;9224;52.422;13.024;2023-01-25T01:31:35;27.58;;;19.30;;
18196;SDS011;9224;52.422;13.024;2023-01-25T01:34:01;28.23;;;19.20;;
18196;SDS011;9224;52.422;13.024;2023-01-25T01:36:28;30.08;;;20.33;;
18196;SDS011;9224;52.422;13.024;2023-01-25T01:38:56;30.67;;;20.35;;
18196;SDS011;9224;52.422;13.024;2023-01-25T01:41:24;27.97;;;19.90;;
18196;SDS011;9224;52.422;13.024;2023-01-25T01:43:51;26.25;;;18.65;;
18196;SDS011;9224;52.422;13.024;2023-01-25T01:46:26;28.38;;;19.75;;
18196;SDS011;9224;52.422;13.024;2023-01-25T01:48:56;30.30;;;20.90;;
18196;SDS011;9224;52.422;13.024;2023-01-25T01:51:26;27.10;;;19.67;;
18196;SDS011;9224;52.422;13.024;2023-01-25T01:54:02;29.70;;;19.17;;
18196;SDS011;9224;52.422;13.024;2023-01-25T01:56:33;28.75;;;20.90;;
18196;SDS011;9224;52.422;13.024;2023-01-25T01:59:04;31.15;;;20.38;;
18196;SDS011;9224;52.422;13.024;2023-01-25T02:01:31;29.38;;;19.88;;
18196;SDS011;9224;52.422;13.024;2023-01-25T02:03:58;30.33;;;20.05;;
18196;SDS011;9224;52.422;13.024;2023-01-25T02:06:26;27.60;;;20.05;;
18196;SDS011;9224;52.422;13.024;2023-01-25T02:08:55;28.60;;;20.50;;
18196;SDS011;9224;52.422;13.024;2023-01-25T02:11:22;31.42;;;21.60;;
18196;SDS011;9224;52.422;13.024;2023-01-25T02:13:51;30.00;;;20.90;;
18196;SDS011;9224;52.422;13.024;2023-01-25T02:16:21;31.33;;;21.60;;
18196;SDS011;9224;52.422;13.024;2023-01-25T02:18:50;31.00;;;21.70;;
18196;SDS011;9224;52.422;13.024;2023-01-25T02:21:17;30.48;;;21.17;;
18196;SDS011;9224;52.422;13.024;2023-01-25T02:23:44;31.42;;;21.73;;
18196;SDS011;9224;52.422;13.024;2023-01-25T02:26:15;31.70;;;21.30;;
18196;SDS011;9224;52.422;13.024;2023-01-25T02:28:44;29.10;;;20.17;;
18196;SDS011;9224;52.422;13.024;2023-01-25T02:31:13;30.38;;;21.10;;
18196;SDS011;9224;52.422;13.024;2023-01-25T02:33:39;29.65;;;20.45;;
18196;SDS011;9224;52.422;13.024;2023-01-25T02:36:14;28.90;;;20.20;;
18196;SDS011;9224;52.422;13.024;2023-01-25T02:38:45;31.00;;;20.83;;
18196;SDS011;9224;52.422;13.024;2023-01-25T02:41:17;28.20;;;19.98;;
18196;SDS011;9224;52.422;13.024;2023-01-25T02:43:48;30.00;;;19.90;;
18196;SDS011;9224;52.422;13.024;2023-01-25T02:46:19;30.40;;;20.17;;
18196;SDS011;9224;52.422;13.024;2023-01-25T02:48:50;28.40;;;20.58;;
18196;SDS011;9224;52.422;13.024;2023-01-25T02:51:17;28.70;;;20.95;;
18196;SDS011;9224;52.422;13.024;2023-01-25T02:53:43;30.67;;;21.45;;
18196;SDS011;9224;52.422;13.024;2023-01-25T02:56:10;29.25;;;21.05;;
18196;SDS011;9224;52.422;13.024;2023-01-25T02:58:38;26.23;;;19.30;;
18196;SDS011;9224;52.422;13.024;2023-01-25T03:01:05;29.20;;;20.83;;
18196;SDS011;9224;52.422;13.024;2023-01-25T03:03:31;29.38;;;19.77;;
18196;SDS011;9224;52.422;13.024;2023-01-25T03:05:58;28.25;;;19.90;;
18196;SDS011;9224;52.422;13.024;2023-01-25T03:08:25;27.17;;;20.10;;
18196;SDS011;9224;52.422;13.024;2023-01-25T03:10:54;28.33;;;21.10;;
18196;SDS011;9224;52.422;13.024;2023-01-25T03:13:21;28.83;;;21.48;;
18196;SDS011;9224;52.422;13.024;2023-01-25T03:15:49;31.70;;;21.67;;
18196;SDS011;9224;52.422;13.024;2023-01-25T03:18:16;30.58;;;20.95;;
18196;SDS011;9224;52.422;13.024;2023-01-25T03:21:05;31.50;;;21.00;;
18196;SDS011;9224;52.422;13.024;2023-01-25T03:23:55;27.45;;;20.35;;
18196;SDS011;9224;52.422;13.024;2023-01-25T03:26:24;30.73;;;21.35;;
18196;SDS011;9224;52.422;13.024;2023-01-25T03:28:51;28.65;;;20.80;;
18196;SDS011;9224;52.422;13.024;2023-01-25T03:31:19;28.60;;;21.55;;
18196;SDS011;9224;52.422;13.024;2023-01-25T03:33:46;29.20;;;20.38;;
18196;SDS011;9224;52.422;13.024;2023-01-25T03:36:13;30.25;;;19.58;;
18196;SDS011;9224;52.422;13.024;2023-01-25T03:38:40;30.57;;;20.87;;
18196;SDS011;9224;52.422;13.024;2023-01-25T03:41:07;28.33;;;20.63;;
18196;SDS011;9224;52.422;13.024;2023-01-25T03:43:34;27.37;;;20.43;;
18196;SDS011;9224;52.422;13.024;2023-01-25T03:46:00;30.55;;;21.45;;
18196;SDS011;9224;52.422;13.024;2023-01-25T03:48:29;29.07;;;20.87;;
18196;SDS011;9224;52.422;13.024;2023-01-25T03:50:56;30.08;;;21.10;;
18196;SDS011;9224;52.422;13.024;2023-01-25T03:53:24;27.85;;;20.23;;
18196;SDS011;9224;52.422;13.024;2023-01-25T03:55:55;27.63;;;19.65;;
18196;SDS011;9224;52.422;13.024;2023-01-25T03:58:22;28.83;;;20.80;;
18196;SDS011;9224;52.422;13.024;2023-01-25T04:00:49;27.17;;;20.70;;
18196;SDS011;9224;52.422;13.024;2023-01-25T04:03:15;29.55;;;20.40;;
18196;SDS011;9224;52.422;13.024;2023-01-25T04:05:45;28.53;;;21.23;;
18196;SDS011;9224;52.422;13.024;2023-01-25T04:08:12;29.50;;;20.80;;
18196;SDS011;9224;52.422;13.024;2023-01-25T04:10:38;29.80;;;21.20;;
18196;SDS011;9224;52.422;13.024;2023-01-25T04:13:05;28.45;;;20.40;;
18196;SDS011;9224;52.422;13.024;2023-01-25T04:15:32;30.85;;;21.05;;
18196;SDS011;9224;52.422;13.024;2023-01-25T04:17:58;33.83;;;21.98;;
18196;SDS011;9224;52.422;13.024;2023-01-25T04:20:25;31.88;;;21.83;;
18196;SDS011;9224;52.422;13.024;2023-01-25T04:22:53;27.97;;;20.50;;
18196;SDS011;9224;52.422;13.024;2023-01-25T04:25:19;30.70;;;21.25;;
18196;SDS011;9224;52.422;13.024;2023-01-25T04:27:46;28.13;;;20.08;;
18196;SDS011;9224;52.422;13.024;2023-01-25T04:30:13;29.92;;;20.25;;
18196;SDS011;9224;52.422;13.024;2023-01-25T04:32:39;31.05;;;21.23;;
18196;SDS011;9224;52.422;13.024;2023-01-25T04:35:06;31.90;;;21.43;;
18196;SDS011;9224;52.422;13.024;2023-01-25T04:37:33;29.70;;;21.02;;
18196;SDS011;9224;52.422;13.024;2023-01-25T04:40:02;29.58;;;20.73;;
18196;SDS011;9224;52.422;13.024;2023-01-25T04:42:29;29.50;;;20.60;;
18196;SDS011;9224;52.422;13.024;2023-01-25T04:44:56;24.88;;;18.13;;
18196;SDS011;9224;52.422;13.024;2023-01-25T04:47:22;27.77;;;20.08;;
18196;SDS011;9224;52.422;13.024;2023-01-25T04:49:49;28.07;;;20.60;;
18196;SDS011;9224;52.422;13.024;2023-01-25T04:52:15;28.38;;;21.15;;
18196;SDS011;9224;52.422;13.024;2023-01-25T04:54:42;28.48;;;21.42;;
18196;SDS011;9224;52.422;13.024;2023-01-25T04:57:10;29.52;;;21.83;;
18196;SDS011;9224;52.422;13.024;2023-01-25T04:59:37;28.83;;;21.00;;
18196;SDS011;9224;52.422;13.024;2023-01-25T05:02:03;26.83;;;20.40;;
18196;SDS011;9224;52.422;13.024;2023-01-25T05:04:30;27.77;;;20.27;;
18196;SDS011;9224;52.422;13.024;2023-01-25T05:06:57;31.57;;;21.00;;
18196;SDS011;9224;52.422;13.024;2023-01-25T05:09:24;31.90;;;21.63;;
18196;SDS011;9224;52.422;13.024;2023-01-25T05:11:51;30.33;;;21.90;;
18196;SDS011;9224;52.422;13.024;2023-01-25T05:14:19;29.38;;;21.67;;
18196;SDS011;9224;52.422;13.024;2023-01-25T05:16:45;30.10;;;21.30;;
18196;SDS011;9224;52.422;13.024;2023-01-25T05:19:12;29.95;;;20.85;;
18196;SDS011;9224;52.422;13.024;2023-01-25T05:21:39;24.33;;;17.95;;
18196;SDS011;9224;52.422;13.024;2023-01-25T05:24:23;24.98;;;19.13;;
18196;SDS011;9224;52.422;13.024;2023-01-25T05:26:51;17.85;;;13.65;;
18196;SDS011;9224;52.422;13.024;2023-01-25T05:29:29;16.27;;;12.93;;
18196;SDS011;9224;52.422;13.024;2023-01-25T05:31:56;16.63;;;12.52;;
18196;SDS011;9224;52.422;13.024;2023-01-25T05:34:23;14.88;;;12.05;;
18196;SDS011;9224;52.422;13.024;2023-01-25T05:36:50;16.00;;;12.98;;
18196;SDS011;9224;52.422;13.024;2023-01-25T05:39:16;16.88;;;13.00;;
18196;SDS011;9224;52.422;13.024;2023-01-25T05:41:43;16.05;;;13.35;;
18196;SDS011;9224;52.422;13.024;2023-01-25T05:44:09;15.63;;;12.43;;
18196;SDS011;9224;52.422;13.024;2023-01-25T05:46:37;16.38;;;12.02;;
18196;SDS011;9224;52.422;13.024;2023-01-25T05:49:05;16.05;;;12.48;;
18196;SDS011;9224;52.422;13.024;2023-01-25T05:51:32;14.20;;;10.93;;
18196;SDS011;9224;52.422;13.024;2023-01-25T05:54:00;13.15;;;10.98;;
18196;SDS011;9224;52.422;13.024;2023-01-25T05:56:26;14.10;;;10.88;;
18196;SDS011;9224;52.422;13.024;2023-01-25T05:58:53;14.93;;;11.55;;
18196;SDS011;9224;52.422;13.024;2023-01-25T06:01:21;13.37;;;10.77;;
18196;SDS011;9224;52.422;13.024;2023-01-25T06:03:49;14.27;;;11.43;;
18196;SDS011;9224;52.422;13.024;2023-01-25T06:06:16;13.43;;;10.88;;
18196;SDS011;9224;52.422;13.024;2023-01-25T06:08:43;14.07;;;11.10;;
18196;SDS011;9224;52.422;13.024;2023-01-25T06:11:11;13.45;;;11.15;;
18196;SDS011;9224;52.422;13.024;2023-01-25T06:13:38;14.52;;;11.15;;
18196;SDS011;9224;52.422;13.024;2023-01-25T06:16:05;12.73;;;10.45;;
18196;SDS011;9224;52.422;13.024;2023-01-25T06:18:32;13.10;;;10.90;;
18196;SDS011;9224;52.422;13.024;2023-01-25T06:21:01;12.47;;;10.20;;
18196;SDS011;9224;52.422;13.024;2023-01-25T06:23:28;13.27;;;10.77;;
18196;SDS011;9224;52.422;13.024;2023-01-25T06:25:56;14.07;;;11.23;;
18196;SDS011;9224;52.422;13.024;2023-01-25T06:28:23;13.23;;;11.13;;
18196;SDS011;9224;52.422;13.024;2023-01-25T06:30:49;14.35;;;11.05;;
18196;SDS011;9224;52.422;13.024;2023-01-25T06:33:16;14.73;;;11.63;;
18196;SDS011;9224;52.422;13.024;2023-01-25T06:35:43;15.35;;;11.13;;
18196;SDS011;9224;52.422;13.024;2023-01-25T06:38:11;16.75;;;12.00;;
18196;SDS011;9224;52.422;13.024;2023-01-25T06:40:38;13.77;;;11.50;;
18196;SDS011;9224;52.422;13.024;2023-01-25T06:43:05;13.70;;;11.20;;
18196;SDS011;9224;52.422;13.024;2023-01-25T06:45:32;14.55;;;11.68;;
18196;SDS011;9224;52.422;13.024;2023-01-25T06:47:59;14.23;;;11.37;;
18196;SDS011;9224;52.422;13.024;2023-01-25T06:50:25;14.35;;;11.90;;
18196;SDS011;9224;52.422;13.024;2023-01-25T06:52:52;13.32;;;11.00;;
18196;SDS011;9224;52.422;13.024;2023-01-25T06:55:21;15.25;;;11.82;;
18196;SDS011;9224;52.422;13.024;2023-01-25T06:57:48;14.45;;;12.15;;
18196;SDS011;9224;52.422;13.024;2023-01-25T07:00:15;15.05;;;12.35;;
18196;SDS011;9224;52.422;13.024;2023-01-25T07:02:42;16.98;;;12.07;;
18196;SDS011;9224;52.422;13.024;2023-01-25T07:05:08;16.60;;;12.88;;
18196;SDS011;9224;52.422;13.024;2023-01-25T07:07:35;17.67;;;13.38;;
18196;SDS011;9224;52.422;13.024;2023-01-25T07:10:02;18.17;;;12.98;;
18196;SDS011;9224;52.422;13.024;2023-01-25T07:12:30;18.80;;;13.93;;
18196;SDS011;9224;52.422;13.024;2023-01-25T07:14:57;17.70;;;12.77;;
18196;SDS011;9224;52.422;13.024;2023-01-25T07:17:24;17.63;;;12.88;;
18196;SDS011;9224;52.422;13.024;2023-01-25T07:19:50;16.50;;;12.88;;
18196;SDS011;9224;52.422;13.024;2023-01-25T07:22:18;18.38;;;13.27;;
18196;SDS011;9224;52.422;13.024;2023-01-25T07:24:44;17.90;;;13.47;;
18196;SDS011;9224;52.422;13.024;2023-01-25T07:27:14;16.67;;;13.52;;
18196;SDS011;9224;52.422;13.024;2023-01-25T07:29:42;18.50;;;14.10;;
18196;SDS011;9224;52.422;13.024;2023-01-25T07:32:10;20.02;;;14.23;;
18196;SDS011;9224;52.422;13.024;2023-01-25T07:34:38;18.60;;;13.75;;
18196;SDS011;9224;52.422;13.024;2023-01-25T07:37:05;17.33;;;13.15;;
18196;SDS011;9224;52.422;13.024;2023-01-25T07:39:33;16.85;;;13.20;;
18196;SDS011;9224;52.422;13.024;2023-01-25T07:42:00;19.23;;;13.48;;
18196;SDS011;9224;52.422;13.024;2023-01-25T07:44:26;18.30;;;13.60;;
18196;SDS011;9224;52.422;13.024;2023-01-25T07:46:54;18.08;;;12.98;;
18196;SDS011;9224;52.422;13.024;2023-01-25T07:49:21;17.83;;;13.27;;
18196;SDS011;9224;52.422;13.024;2023-01-25T07:51:47;16.45;;;12.70;;
18196;SDS011;9224;52.422;13.024;2023-01-25T07:54:14;18.50;;;14.37;;
18196;SDS011;9224;52.422;13.024;2023-01-25T07:56:41;19.80;;;14.38;;
18196;SDS011;9224;52.422;13.024;2023-01-25T07:59:08;18.67;;;14.35;;
18196;SDS011;9224;52.422;13.024;2023-01-25T08:01:35;21.10;;;14.70;;
18196;SDS011;9224;52.422;13.024;2023-01-25T08:04:03;22.27;;;14.90;;
18196;SDS011;9224;52.422;13.024;2023-01-25T08:06:30;22.95;;;15.77;;
18196;SDS011;9224;52.422;13.024;2023-01-25T08:09:00;23.33;;;15.75;;
18196;SDS011;9224;52.422;13.024;2023-01-25T08:11:28;21.02;;;15.52;;
18196;SDS011;9224;52.422;13.024;2023-01-25T08:13:56;22.48;;;15.15;;
18196;SDS011;9224;52.422;13.024;2023-01-25T08:16:23;22.67;;;15.98;;
18196;SDS011;9224;52.422;13.024;2023-01-25T08:18:52;24.35;;;16.70;;
18196;SDS011;9224;52.422;13.024;2023-01-25T08:21:21;22.87;;;15.93;;
18196;SDS011;9224;52.422;13.024;2023-01-25T08:23:48;20.08;;;15.27;;
18196;SDS011;9224;52.422;13.024;2023-01-25T08:26:15;19.73;;;14.70;;
18196;SDS011;9224;52.422;13.024;2023-01-25T08:28:42;20.00;;;15.10;;
18196;SDS011;9224;52.422;13.024;2023-01-25T08:31:09;24.30;;;17.45;;
18196;SDS011;9224;52.422;13.024;2023-01-25T08:33:37;22.15;;;17.20;;
18196;SDS011;9224;52.422;13.024;2023-01-25T08:36:05;23.67;;;17.75;;
18196;SDS011;9224;52.422;13.024;2023-01-25T08:38:34;21.65;;;16.38;;
18196;SDS011;9224;52.422;13.024;2023-01-25T08:41:04;23.08;;;16.30;;
18196;SDS011;9224;52.422;13.024;2023-01-25T08:43:31;22.70;;;16.50;;
18196;SDS011;9224;52.422;13.024;2023-01-25T08:45:57;23.20;;;16.85;;
18196;SDS011;9224;52.422;13.024;2023-01-25T08:48:24;32.47;;;18.42;;
18196;SDS011;9224;52.422;13.024;2023-01-25T08:50:51;23.27;;;17.05;;
18196;SDS011;9224;52.422;13.024;2023-01-25T08:53:18;24.67;;;17.00;;
18196;SDS011;9224;52.422;13.024;2023-01-25T08:55:46;23.60;;;17.50;;
18196;SDS011;9224;52.422;13.024;2023-01-25T08:58:12;26.05;;;16.85;;
18196;SDS011;9224;52.422;13.024;2023-01-25T09:00:41;23.90;;;17.90;;
18196;SDS011;9224;52.422;13.024;2023-01-25T09:03:09;25.50;;;17.58;;
18196;SDS011;9224;52.422;13.024;2023-01-25T09:05:36;24.67;;;17.70;;
18196;SDS011;9224;52.422;13.024;2023-01-25T09:08:05;25.07;;;17.60;;
18196;SDS011;9224;52.422;13.024;2023-01-25T09:10:33;24.80;;;17.38;;
18196;SDS011;9224;52.422;13.024;2023-01-25T09:13:01;25.48;;;18.00;;
18196;SDS011;9224;52.422;13.024;2023-01-25T09:15:28;30.80;;;19.38;;
18196;SDS011;9224;52.422;13.024;2023-01-25T09:17:55;26.13;;;17.87;;
18196;SDS011;9224;52.422;13.024;2023-01-25T09:20:22;31.00;;;19.25;;
18196;SDS011;9224;52.422;13.024;2023-01-25T09:22:49;29.97;;;19.40;;
18196;SDS011;9224;52.422;13.024;2023-01-25T09:25:16;32.40;;;20.67;;
18196;SDS011;9224;52.422;13.024;2023-01-25T09:27:43;28.30;;;19.77;;
18196;SDS011;9224;52.422;13.024;2023-01-25T09:30:11;32.17;;;20.43;;
18196;SDS011;9224;52.422;13.024;2023-01-25T09:32:38;32.75;;;20.98;;
18196;SDS011;9224;52.422;13.024;2023-01-25T09:35:05;29.55;;;20.38;;
18196;SDS011;9224;52.422;13.024;2023-01-25T09:37:32;28.48;;;19.05;;
18196;SDS011;9224;52.422;13.024;2023-01-25T09:39:58;30.83;;;20.40;;
18196;SDS011;9224;52.422;13.024;2023-01-25T09:42:35;32.00;;;20.20;;
18196;SDS011;9224;52.422;13.024;2023-01-25T09:45:14;31.88;;;20.42;;
18196;SDS011;9224;52.422;13.024;2023-01-25T09:47:46;30.90;;;20.80;;
18196;SDS011;9224;52.422;13.024;2023-01-25T09:50:18;30.70;;;18.88;;
18196;SDS011;9224;52.422;13.024;2023-01-25T09:53:01;31.60;;;20.77;;
18196;SDS011;9224;52.422;13.024;2023-01-25T09:55:37;28.92;;;19.50;;
18196;SDS011;9224;52.422;13.024;2023-01-25T09:58:08;28.60;;;19.02;;
18196;SDS011;9224;52.422;13.024;2023-01-25T10:00:40;27.63;;;18.60;;
18196;SDS011;9224;52.422;13.024;2023-01-25T10:03:10;29.40;;;19.15;;
18196;SDS011;9224;52.422;13.024;2023-01-25T10:05:42;27.95;;;19.75;;
18196;SDS011;9224;52.422;13.024;2023-01-25T10:08:12;29.75;;;18.95;;
18196;SDS011;9224;52.422;13.024;2023-01-25T10:10:43;25.17;;;17.77;;
18196;SDS011;9224;52.422;13.024;2023-01-25T10:13:13;27.00;;;18.43;;
18196;SDS011;9224;52.422;13.024;2023-01-25T10:15:43;30.23;;;19.08;;
18196;SDS011;9224;52.422;13.024;2023-01-25T10:18:15;28.50;;;18.67;;
18196;SDS011;9224;52.422;13.024;2023-01-25T10:20:47;32.45;;;19.35;;
18196;SDS011;9224;52.422;13.024;2023-01-25T10:23:24;29.25;;;18.90;;
18196;SDS011;9224;52.422;13.024;2023-01-25T10:25:58;28.15;;;19.48;;
18196;SDS011;9224;52.422;13.024;2023-01-25T10:28:28;30.38;;;19.00;;
18196;SDS011;9224;52.422;13.024;2023-01-25T10:31:03;33.10;;;20.73;;
18196;SDS011;9224;52.422;13.024;2023-01-25T10:33:32;31.73;;;20.45;;
18196;SDS011;9224;52.422;13.024;2023-01-25T10:36:01;34.53;;;20.35;;
18196;SDS011;9224;52.422;13.024;2023-01-25T10:38:29;32.95;;;21.00;;
18196;SDS011;9224;52.422;13.024;2023-01-25T10:41:00;30.80;;;19.77;;
18196;SDS011;9224;52.422;13.024;2023-01-25T10:43:29;36.20;;;22.15;;
18196;SDS011;9224;52.422;13.024;2023-01-25T10:45:56;36.40;;;22.20;;
18196;SDS011;9224;52.422;13.024;2023-01-25T10:48:25;32.47;;;20.38;;
18196;SDS011;9224;52.422;13.024;2023-01-25T10:50:55;33.58;;;20.73;;
18196;SDS011;9224;52.422;13.024;2023-01-25T10:53:32;34.95;;;22.15;;
18196;SDS011;9224;52.422;13.024;2023-01-25T10:56:01;31.85;;;20.17;;
18196;SDS011;9224;52.422;13.024;2023-01-25T10:58:32;32.30;;;19.90;;
18196;SDS011;9224;52.422;13.024;2023-01-25T11:01:00;30.33;;;19.70;;
18196;SDS011;9224;52.422;13.024;2023-01-25T11:03:36;33.15;;;21.27;;
18196;SDS011;9224;52.422;13.024;2023-01-25T11:06:04;31.33;;;19.38;;
18196;SDS011;9224;52.422;13.024;2023-01-25T11:08:32;30.27;;;18.77;;
18196;SDS011;9224;52.422;13.024;2023-01-25T11:11:10;29.10;;;19.00;;
18196;SDS011;9224;52.422;13.024;2023-01-25T11:13:40;29.05;;;19.17;;
18196;SDS011;9224;52.422;13.024;2023-01-25T11:16:14;28.57;;;19.43;;
18196;SDS011;9224;52.422;13.024;2023-01-25T11:18:51;28.13;;;19.37;;
18196;SDS011;9224;52.422;13.024;2023-01-25T11:21:19;29.80;;;19.13;;
18196;SDS011;9224;52.422;13.024;2023-01-25T11:23:58;27.57;;;19.33;;
18196;SDS011;9224;52.422;13.024;2023-01-25T11:26:30;27.52;;;18.60;;
18196;SDS011;9224;52.422;13.024;2023-01-25T11:29:05;24.23;;;17.27;;
18196;SDS011;9224;52.422;13.024;2023-01-25T11:31:36;24.73;;;17.67;;
18196;SDS011;9224;52.422;13.024;2023-01-25T11:34:08;23.73;;;17.23;;
18196;SDS011;9224;52.422;13.024;2023-01-25T11:36:37;28.38;;;17.50;;
18196;SDS011;9224;52.422;13.024;2023-01-25T11:39:11;25.08;;;17.10;;
18196;SDS011;9224;52.422;13.024;2023-01-25T11:42:02;24.20;;;16.77;;
18196;SDS011;9224;52.422;13.024;2023-01-25T11:44:42;25.83;;;16.52;;
18196;SDS011;9224;52.422;13.024;2023-01-25T11:47:25;26.20;;;16.88;;
18196;SDS011;9224;52.422;13.024;2023-01-25T11:50:04;29.38;;;16.80;;
18196;SDS011;9224;52.422;13.024;2023-01-25T11:52:38;26.20;;;17.35;;
18196;SDS011;9224;52.422;13.024;2023-01-25T11:55:21;25.13;;;17.25;;
18196;SDS011;9224;52.422;13.024;2023-01-25T11:58:01;26.20;;;17.30;;
18196;SDS011;9224;52.422;13.024;2023-01-25T12:00:40;26.55;;;17.75;;
18196;SDS011;9224;52.422;13.024;2023-01-25T12:03:28;27.70;;;18.55;;
18196;SDS011;9224;52.422;13.024;2023-01-25T12:06:08;29.88;;;18.88;;
18196;SDS011;9224;52.422;13.024;2023-01-25T12:08:44;24.30;;;16.83;;
18196;SDS011;9224;52.422;13.024;2023-01-25T12:11:18;23.55;;;16.00;;
18196;SDS011;9224;52.422;13.024;2023-01-25T12:13:51;21.17;;;15.27;;
18196;SDS011;9224;52.422;13.024;2023-01-25T12:16:26;22.67;;;15.60;;
18196;SDS011;9224;52.422;13.024;2023-01-25T12:19:02;24.27;;;16.33;;
18196;SDS011;9224;52.422;13.024;2023-01-25T12:21:44;23.73;;;16.65;;
18196;SDS011;9224;52.422;13.024;2023-01-25T12:24:20;23.75;;;16.88;;
18196;SDS011;9224;52.422;13.024;2023-01-25T12:26:55;24.17;;;16.75;;
18196;SDS011;9224;52.422;13.024;2023-01-25T12:29:28;23.02;;;15.40;;
18196;SDS011;9224;52.422;13.024;2023-01-25T12:31:57;23.60;;;16.02;;
18196;SDS011;9224;52.422;13.024;2023-01-25T12:34:26;24.85;;;16.13;;
18196;SDS011;9224;52.422;13.024;2023-01-25T12:37:02;24.55;;;15.38;;
18196;SDS011;9224;52.422;13.024;2023-01-25T12:39:32;23.52;;;15.90;;
18196;SDS011;9224;52.422;13.024;2023-01-25T12:42:03;25.42;;;16.63;;
18196;SDS011;9224;52.422;13.024;2023-01-25T12:44:34;26.75;;;17.60;;
18196;SDS011;9224;52.422;13.024;2023-01-25T12:47:04;26.73;;;16.52;;
18196;SDS011;9224;52.422;13.024;2023-01-25T12:49:35;25.48;;;17.20;;
18196;SDS011;9224;52.422;13.024;2023-01-25T12:52:06;27.70;;;17.90;;
18196;SDS011;9224;52.422;13.024;2023-01-25T12:54:44;26.45;;;16.58;;
18196;SDS011;9224;52.422;13.024;2023-01-25T12:57:15;26.23;;;16.98;;
18196;SDS011;9224;52.422;13.024;2023-01-25T12:59:46;28.25;;;17.85;;
18196;SDS011;9224;52.422;13.024;2023-01-25T13:02:35;26.40;;;17.05;;
18196;SDS011;9224;52.422;13.024;2023-01-25T13:05:12;26.52;;;17.58;;
18196;SDS011;9224;52.422;13.024;2023-01-25T13:07:46;25.92;;;16.90;;
18196;SDS011;9224;52.422;13.024;2023-01-25T13:10:19;26.58;;;17.08;;
18196;SDS011;9224;52.422;13.024;2023-01-25T13:12:50;22.95;;;16.42;;
18196;SDS011;9224;52.422;13.024;2023-01-25T13:15:33;23.92;;;16.75;;
18196;SDS011;9224;52.422;13.024;2023-01-25T13:18:04;22.13;;;15.20;;
18196;SDS011;9224;52.422;13.024;2023-01-25T13:24:15;25.42;;;17.23;;
18196;SDS011;9224;52.422;13.024;2023-01-25T13:26:47;23.00;;;15.25;;
18196;SDS011;9224;52.422;13.024;2023-01-25T13:41:11;22.95;;;15.73;;
18196;SDS011;9224;52.422;13.024;2023-01-25T13:43:41;21.17;;;14.15;;
18196;SDS011;9224;52.422;13.024;2023-01-25T13:46:10;21.75;;;15.20;;
18196;SDS011;9224;52.422;13.024;2023-01-25T13:51:35;23.17;;;15.10;;
18196;SDS011;9224;52.422;13.024;2023-01-25T13:54:04;23.20;;;14.97;;
18196;SDS011;9224;52.422;13.024;2023-01-25T13:56:33;21.58;;;14.73;;
18196;SDS011;9224;52.422;13.024;2023-01-25T13:59:00;23.88;;;15.45;;
18196;SDS011;9224;52.422;13.024;2023-01-25T14:01:28;655.97;;;54.07;;
18196;SDS011;9224;52.422;13.024;2023-01-25T14:03:58;24.77;;;14.65;;
18196;SDS011;9224;52.422;13.024;2023-01-25T14:06:27;23.58;;;14.98;;
18196;SDS011;9224;52.422;13.024;2023-01-25T14:08:55;23.60;;;15.25;;
18196;SDS011;9224;52.422;13.024;2023-01-25T14:11:23;22.13;;;14.80;;
18196;SDS011;9224;52.422;13.024;2023-01-25T14:13:56;24.30;;;15.95;;
18196;SDS011;9224;52.422;13.024;2023-01-25T14:16:24;22.67;;;15.20;;
18196;SDS011;9224;52.422;13.024;2023-01-25T14:18:53;25.02;;;15.77;;
18196;SDS011;9224;52.422;13.024;2023-01-25T14:21:20;28.33;;;17.42;;
18196;SDS011;9224;52.422;13.024;2023-01-25T14:23:47;27.42;;;16.52;;
18196;SDS011;9224;52.422;13.024;2023-01-25T14:26:20;27.23;;;16.53;;
18196;SDS011;9224;52.422;13.024;2023-01-25T14:28:49;30.92;;;17.60;;
18196;SDS011;9224;52.422;13.024;2023-01-25T14:31:22;26.35;;;16.17;;
18196;SDS011;9224;52.422;13.024;2023-01-25T14:33:50;28.23;;;17.05;;
18196;SDS011;9224;52.422;13.024;2023-01-25T14:36:23;26.38;;;16.50;;
18196;SDS011;9224;52.422;13.024;2023-01-25T14:38:51;27.83;;;16.00;;
18196;SDS011;9224;52.422;13.024;2023-01-25T14:41:20;25.63;;;15.52;;
18196;SDS011;9224;52.422;13.024;2023-01-25T14:43:49;27.60;;;15.80;;
18196;SDS011;9224;52.422;13.024;2023-01-25T14:46:18;27.98;;;15.65;;
18196;SDS011;9224;52.422;13.024;2023-01-25T14:48:50;27.42;;;15.45;;
18196;SDS011;9224;52.422;13.024;2023-01-25T14:51:21;24.83;;;14.88;;